sensor_id;sensor_type;location;lat;lon;timestamp;pressure;altitude;pressure_sealevel;temperature;humidity
20860;BME280;10590;48.154;11.514;2023-05-14T00:01:33;95631.97;;;11.02;83.56
20860;BME280;10590;48.154;11.514;2023-05-14T00:06:55;95616.28;;;10.92;83.33
20860;BME280;10590;48.154;11.514;2023-05-14T00:12:18;95616.59;;;10.99;82.44
20860;BME280;10590;48.154;11.514;2023-05-14T00:17:41;95619.13;;;10.87;83.38
20860;BME280;10590;48.154;11.514;2023-05-14T00:23:03;95614.28;;;10.71;83.56
20860;BME280;10590;48.154;11.514;2023-05-14T00:28:25;95609.88;;;10.75;83.68
20860;BME280;10590;48.154;11.514;2023-05-14T00:33:48;95616.13;;;10.88;82.97
20860;BME280;10590;48.154;11.514;2023-05-14T00:39:10;95604.69;;;10.88;82.25
20860;BME280;10590;48.154;11.514;2023-05-14T00:44:32;95609.25;;;10.70;82.79
20860;BME280;10590;48.154;11.514;2023-05-14T00:49:55;95600.94;;;10.71;82.89
20860;BME280;10590;48.154;11.514;2023-05-14T00:55:18;95600.44;;;10.78;81.91
20860;BME280;10590;48.154;11.514;2023-05-14T01:00:42;95602.03;;;10.79;82.11
20860;BME280;10590;48.154;11.514;2023-05-14T01:06:11;95597.97;;;10.56;82.86
20860;BME280;10590;48.154;11.514;2023-05-14T01:11:40;95599.03;;;10.29;83.53
20860;BME280;10590;48.154;11.514;2023-05-14T01:17:03;95599.06;;;10.46;82.96
20860;BME280;10590;48.154;11.514;2023-05-14T01:22:27;95598.72;;;10.21;84.21
20860;BME280;10590;48.154;11.514;2023-05-14T01:27:52;95590.59;;;10.44;83.16
20860;BME280;10590;48.154;11.514;2023-05-14T01:33:18;95586.19;;;10.31;83.32
20860;BME280;10590;48.154;11.514;2023-05-14T01:38:43;95584.16;;;10.53;82.30
20860;BME280;10590;48.154;11.514;2023-05-14T01:44:07;95582.91;;;10.51;82.10
20860;BME280;10590;48.154;11.514;2023-05-14T01:49:29;95582.59;;;10.52;82.05
20860;BME280;10590;48.154;11.514;2023-05-14T01:54:53;95575.97;;;10.67;81.39
20860;BME280;10590;48.154;11.514;2023-05-14T02:00:15;95569.84;;;10.75;81.08
20860;BME280;10590;48.154;11.514;2023-05-14T02:05:37;95564.84;;;10.57;82.07
20860;BME280;10590;48.154;11.514;2023-05-14T02:11:01;95575.38;;;10.44;83.47
20860;BME280;10590;48.154;11.514;2023-05-14T02:16:23;95565.03;;;10.43;82.82
20860;BME280;10590;48.154;11.514;2023-05-14T02:21:45;95565.44;;;10.10;84.11
20860;BME280;10590;48.154;11.514;2023-05-14T02:27:08;95562.97;;;10.31;83.26
20860;BME280;10590;48.154;11.514;2023-05-14T02:32:32;95561.19;;;10.09;84.21
20860;BME280;10590;48.154;11.514;2023-05-14T02:37:54;95565.91;;;10.12;84.75
20860;BME280;10590;48.154;11.514;2023-05-14T02:43:17;95560.63;;;10.47;83.71
20860;BME280;10590;48.154;11.514;2023-05-14T02:48:39;95564.50;;;10.06;84.95
20860;BME280;10590;48.154;11.514;2023-05-14T02:54:01;95553.84;;;10.32;83.92
20860;BME280;10590;48.154;11.514;2023-05-14T02:59:26;95555.38;;;9.90;86.01
20860;BME280;10590;48.154;11.514;2023-05-14T03:04:48;95555.41;;;10.07;85.38
20860;BME280;10590;48.154;11.514;2023-05-14T03:10:10;95543.81;;;10.20;84.37
20860;BME280;10590;48.154;11.514;2023-05-14T03:15:33;95553.22;;;10.18;84.11
20860;BME280;10590;48.154;11.514;2023-05-14T03:20:55;95546.34;;;10.26;83.58
20860;BME280;10590;48.154;11.514;2023-05-14T03:26:17;95543.47;;;9.87;85.21
20860;BME280;10590;48.154;11.514;2023-05-14T03:31:41;95534.69;;;10.04;84.81
20860;BME280;10590;48.154;11.514;2023-05-14T03:37:04;95541.63;;;10.23;83.95
20860;BME280;10590;48.154;11.514;2023-05-14T03:42:26;95534.69;;;10.04;84.00
20860;BME280;10590;48.154;11.514;2023-05-14T03:47:49;95537.38;;;10.04;83.83
20860;BME280;10590;48.154;11.514;2023-05-14T03:53:11;95531.41;;;10.07;84.16
20860;BME280;10590;48.154;11.514;2023-05-14T03:58:33;95536.09;;;9.93;84.58
20860;BME280;10590;48.154;11.514;2023-05-14T04:03:59;95530.44;;;9.69;85.87
20860;BME280;10590;48.154;11.514;2023-05-14T04:09:21;95540.78;;;9.70;85.92
20860;BME280;10590;48.154;11.514;2023-05-14T04:14:44;95535.31;;;9.75;85.63
20860;BME280;10590;48.154;11.514;2023-05-14T04:20:09;95531.06;;;9.74;85.88
20860;BME280;10590;48.154;11.514;2023-05-14T04:25:30;95538.44;;;9.77;85.61
20860;BME280;10590;48.154;11.514;2023-05-14T04:30:52;95540.97;;;9.91;84.90
20860;BME280;10590;48.154;11.514;2023-05-14T04:36:16;95537.53;;;10.16;83.73
20860;BME280;10590;48.154;11.514;2023-05-14T04:41:38;95538.97;;;10.31;82.97
20860;BME280;10590;48.154;11.514;2023-05-14T04:47:00;95544.75;;;10.25;83.60
20860;BME280;10590;48.154;11.514;2023-05-14T04:52:24;95538.66;;;10.33;83.39
20860;BME280;10590;48.154;11.514;2023-05-14T04:57:46;95547.13;;;10.35;83.35
20860;BME280;10590;48.154;11.514;2023-05-14T05:03:08;95541.44;;;10.19;84.43
20860;BME280;10590;48.154;11.514;2023-05-14T05:08:32;95546.63;;;9.98;84.37
20860;BME280;10590;48.154;11.514;2023-05-14T05:13:53;95550.06;;;9.99;85.03
20860;BME280;10590;48.154;11.514;2023-05-14T05:19:15;95542.22;;;10.02;84.90
20860;BME280;10590;48.154;11.514;2023-05-14T05:24:39;95547.72;;;10.06;85.47
20860;BME280;10590;48.154;11.514;2023-05-14T05:30:01;95548.00;;;9.87;86.35
20860;BME280;10590;48.154;11.514;2023-05-14T05:35:23;95550.50;;;9.26;88.47
20860;BME280;10590;48.154;11.514;2023-05-14T05:40:46;95542.13;;;9.50;88.67
20860;BME280;10590;48.154;11.514;2023-05-14T05:46:08;95550.66;;;9.78;87.53
20860;BME280;10590;48.154;11.514;2023-05-14T05:51:30;95554.56;;;9.64;87.98
20860;BME280;10590;48.154;11.514;2023-05-14T05:56:54;95551.19;;;9.49;88.29
20860;BME280;10590;48.154;11.514;2023-05-14T06:02:16;95553.75;;;9.15;90.30
20860;BME280;10590;48.154;11.514;2023-05-14T06:07:38;95554.44;;;9.86;88.33
20860;BME280;10590;48.154;11.514;2023-05-14T06:13:01;95550.91;;;10.42;85.28
20860;BME280;10590;48.154;11.514;2023-05-14T06:18:23;95550.72;;;10.56;84.14
20860;BME280;10590;48.154;11.514;2023-05-14T06:23:45;95548.53;;;10.24;85.19
20860;BME280;10590;48.154;11.514;2023-05-14T06:29:08;95544.59;;;10.64;83.47
20860;BME280;10590;48.154;11.514;2023-05-14T06:34:30;95542.84;;;10.68;83.50
20860;BME280;10590;48.154;11.514;2023-05-14T06:39:52;95545.84;;;10.32;84.42
20860;BME280;10590;48.154;11.514;2023-05-14T06:45:16;95547.75;;;10.40;84.13
20860;BME280;10590;48.154;11.514;2023-05-14T06:50:38;95534.72;;;10.65;83.88
20860;BME280;10590;48.154;11.514;2023-05-14T06:56:00;95543.47;;;9.87;86.78
20860;BME280;10590;48.154;11.514;2023-05-14T07:01:24;95548.19;;;9.99;86.70
20860;BME280;10590;48.154;11.514;2023-05-14T07:06:46;95555.44;;;10.42;84.82
20860;BME280;10590;48.154;11.514;2023-05-14T07:12:08;95538.16;;;10.31;85.20
20860;BME280;10590;48.154;11.514;2023-05-14T07:17:31;95535.03;;;10.63;83.39
20860;BME280;10590;48.154;11.514;2023-05-14T07:22:53;95520.81;;;10.89;82.70
20860;BME280;10590;48.154;11.514;2023-05-14T07:28:15;95521.28;;;11.37;80.76
20860;BME280;10590;48.154;11.514;2023-05-14T07:33:38;95522.69;;;10.97;81.99
20860;BME280;10590;48.154;11.514;2023-05-14T07:39:00;95519.25;;;11.64;80.03
20860;BME280;10590;48.154;11.514;2023-05-14T07:44:22;95525.69;;;10.87;82.26
20860;BME280;10590;48.154;11.514;2023-05-14T07:49:45;95522.56;;;11.23;81.58
20860;BME280;10590;48.154;11.514;2023-05-14T07:55:08;95507.47;;;11.35;80.11
20860;BME280;10590;48.154;11.514;2023-05-14T08:00:30;95499.78;;;11.25;80.09
20860;BME280;10590;48.154;11.514;2023-05-14T08:05:53;95504.56;;;11.11;80.97
20860;BME280;10590;48.154;11.514;2023-05-14T08:11:15;95500.97;;;11.07;81.42
20860;BME280;10590;48.154;11.514;2023-05-14T08:16:38;95500.66;;;11.08;82.55
20860;BME280;10590;48.154;11.514;2023-05-14T08:22:01;95495.25;;;11.55;79.50
20860;BME280;10590;48.154;11.514;2023-05-14T08:27:23;95510.66;;;11.20;80.86
20860;BME280;10590;48.154;11.514;2023-05-14T08:32:45;95516.13;;;11.32;80.13
20860;BME280;10590;48.154;11.514;2023-05-14T08:38:09;95515.78;;;10.96;81.03
20860;BME280;10590;48.154;11.514;2023-05-14T08:43:38;95499.00;;;11.33;80.17
20860;BME280;10590;48.154;11.514;2023-05-14T08:49:13;95507.94;;;10.91;81.21
20860;BME280;10590;48.154;11.514;2023-05-14T08:54:38;95501.28;;;11.43;79.52
20860;BME280;10590;48.154;11.514;2023-05-14T09:00:02;95503.34;;;11.67;78.10
20860;BME280;10590;48.154;11.514;2023-05-14T09:05:27;95503.50;;;12.12;77.05
20860;BME280;10590;48.154;11.514;2023-05-14T09:10:51;95498.50;;;11.61;76.86
20860;BME280;10590;48.154;11.514;2023-05-14T09:16:13;95490.50;;;11.31;78.69
20860;BME280;10590;48.154;11.514;2023-05-14T09:21:36;95494.56;;;11.37;78.42
20860;BME280;10590;48.154;11.514;2023-05-14T09:27:00;95480.94;;;11.22;78.49
20860;BME280;10590;48.154;11.514;2023-05-14T09:32:23;95484.16;;;11.95;76.30
20860;BME280;10590;48.154;11.514;2023-05-14T09:37:46;95486.94;;;12.40;74.44
20860;BME280;10590;48.154;11.514;2023-05-14T09:43:10;95489.19;;;11.67;76.22
20860;BME280;10590;48.154;11.514;2023-05-14T09:48:33;95488.25;;;11.42;77.46
20860;BME280;10590;48.154;11.514;2023-05-14T09:53:56;95483.69;;;12.13;74.24
20860;BME280;10590;48.154;11.514;2023-05-14T09:59:19;95482.78;;;12.09;74.25
20860;BME280;10590;48.154;11.514;2023-05-14T10:04:41;95478.75;;;12.69;71.74
20860;BME280;10590;48.154;11.514;2023-05-14T10:10:07;95484.25;;;12.85;70.54
20860;BME280;10590;48.154;11.514;2023-05-14T10:15:39;95483.94;;;12.41;70.71
20860;BME280;10590;48.154;11.514;2023-05-14T10:21:04;95479.34;;;12.42;73.78
20860;BME280;10590;48.154;11.514;2023-05-14T10:26:26;95486.69;;;12.33;72.80
20860;BME280;10590;48.154;11.514;2023-05-14T10:31:51;95486.69;;;11.91;74.81
20860;BME280;10590;48.154;11.514;2023-05-14T10:37:16;95483.13;;;11.58;75.81
20860;BME280;10590;48.154;11.514;2023-05-14T10:42:38;95493.22;;;11.82;75.33
20860;BME280;10590;48.154;11.514;2023-05-14T10:48:04;95489.94;;;11.97;74.66
20860;BME280;10590;48.154;11.514;2023-05-14T10:53:31;95494.44;;;11.84;74.35
20860;BME280;10590;48.154;11.514;2023-05-14T10:58:57;95479.91;;;11.94;73.65
20860;BME280;10590;48.154;11.514;2023-05-14T11:04:22;95475.66;;;12.13;72.58
20860;BME280;10590;48.154;11.514;2023-05-14T11:09:45;95478.41;;;11.84;73.40
20860;BME280;10590;48.154;11.514;2023-05-14T11:15:09;95477.75;;;12.08;72.59
20860;BME280;10590;48.154;11.514;2023-05-14T11:20:34;95481.75;;;12.23;71.92
20860;BME280;10590;48.154;11.514;2023-05-14T11:25:56;95469.81;;;12.20;72.08
20860;BME280;10590;48.154;11.514;2023-05-14T11:31:18;95458.19;;;12.16;71.19
20860;BME280;10590;48.154;11.514;2023-05-14T11:36:41;95447.53;;;12.73;70.84
20860;BME280;10590;48.154;11.514;2023-05-14T11:42:04;95447.09;;;12.84;69.17
20860;BME280;10590;48.154;11.514;2023-05-14T11:47:31;95451.72;;;12.50;68.56
20860;BME280;10590;48.154;11.514;2023-05-14T11:52:56;95452.25;;;12.43;68.58
20860;BME280;10590;48.154;11.514;2023-05-14T11:58:18;95438.88;;;13.37;66.66
20860;BME280;10590;48.154;11.514;2023-05-14T12:03:40;95440.19;;;13.68;65.21
20860;BME280;10590;48.154;11.514;2023-05-14T12:09:05;95424.69;;;14.89;61.94
20860;BME280;10590;48.154;11.514;2023-05-14T12:14:27;95413.94;;;15.55;60.18
20860;BME280;10590;48.154;11.514;2023-05-14T12:19:50;95408.53;;;14.14;64.46
20860;BME280;10590;48.154;11.514;2023-05-14T12:25:13;95408.53;;;15.20;60.78
20860;BME280;10590;48.154;11.514;2023-05-14T12:30:36;95394.25;;;15.01;60.83
20860;BME280;10590;48.154;11.514;2023-05-14T12:35:58;95385.97;;;16.56;54.21
20860;BME280;10590;48.154;11.514;2023-05-14T12:41:23;95382.44;;;15.91;58.01
20860;BME280;10590;48.154;11.514;2023-05-14T12:46:45;95379.06;;;18.18;50.17
20860;BME280;10590;48.154;11.514;2023-05-14T12:52:07;95354.00;;;19.02;48.03
20860;BME280;10590;48.154;11.514;2023-05-14T12:57:30;95352.50;;;21.28;42.28
20860;BME280;10590;48.154;11.514;2023-05-14T13:02:54;95337.25;;;19.37;44.85
20860;BME280;10590;48.154;11.514;2023-05-14T13:08:16;95350.59;;;16.58;53.85
20860;BME280;10590;48.154;11.514;2023-05-14T13:13:42;95336.75;;;18.66;48.61
20860;BME280;10590;48.154;11.514;2023-05-14T13:19:04;95324.16;;;21.22;42.70
20860;BME280;10590;48.154;11.514;2023-05-14T13:24:26;95313.69;;;18.83;48.74
20860;BME280;10590;48.154;11.514;2023-05-14T13:29:49;95313.56;;;19.16;47.33
20860;BME280;10590;48.154;11.514;2023-05-14T13:35:11;95307.63;;;17.74;51.33
20860;BME280;10590;48.154;11.514;2023-05-14T13:40:35;95298.66;;;19.51;43.96
20860;BME280;10590;48.154;11.514;2023-05-14T13:45:59;95293.13;;;20.09;43.42
20860;BME280;10590;48.154;11.514;2023-05-14T13:51:22;95291.06;;;22.50;37.77
20860;BME280;10590;48.154;11.514;2023-05-14T13:56:44;95277.91;;;19.72;43.14
20860;BME280;10590;48.154;11.514;2023-05-14T14:02:07;95274.09;;;17.75;48.46
20860;BME280;10590;48.154;11.514;2023-05-14T14:07:29;95265.06;;;17.98;49.39
20860;BME280;10590;48.154;11.514;2023-05-14T14:12:51;95254.84;;;20.96;39.94
20860;BME280;10590;48.154;11.514;2023-05-14T14:18:14;95258.63;;;17.72;45.77
20860;BME280;10590;48.154;11.514;2023-05-14T14:23:36;95248.22;;;20.15;41.57
20860;BME280;10590;48.154;11.514;2023-05-14T14:28:58;95238.84;;;19.81;43.44
20860;BME280;10590;48.154;11.514;2023-05-14T14:34:21;95224.44;;;18.24;46.12
20860;BME280;10590;48.154;11.514;2023-05-14T14:39:43;95228.97;;;16.56;50.21
20860;BME280;10590;48.154;11.514;2023-05-14T14:45:06;95220.25;;;17.52;49.39
20860;BME280;10590;48.154;11.514;2023-05-14T14:50:29;95213.88;;;19.18;43.65
20860;BME280;10590;48.154;11.514;2023-05-14T14:56:04;95219.63;;;20.43;41.53
20860;BME280;10590;48.154;11.514;2023-05-14T15:01:51;95191.72;;;18.33;45.88
20860;BME280;10590;48.154;11.514;2023-05-14T15:07:17;95196.41;;;17.25;46.79
20860;BME280;10590;48.154;11.514;2023-05-14T15:12:41;95214.66;;;17.35;48.13
20860;BME280;10590;48.154;11.514;2023-05-14T15:18:04;95204.53;;;16.98;47.93
20860;BME280;10590;48.154;11.514;2023-05-14T15:23:27;95207.47;;;16.60;50.82
20860;BME280;10590;48.154;11.514;2023-05-14T15:28:50;95204.25;;;16.50;49.16
20860;BME280;10590;48.154;11.514;2023-05-14T15:34:12;95207.69;;;16.24;50.12
20860;BME280;10590;48.154;11.514;2023-05-14T15:39:35;95213.84;;;16.74;48.04
20860;BME280;10590;48.154;11.514;2023-05-14T15:44:57;95206.41;;;16.41;49.82
20860;BME280;10590;48.154;11.514;2023-05-14T15:50:19;95195.88;;;16.82;48.44
20860;BME280;10590;48.154;11.514;2023-05-14T15:55:43;95197.09;;;16.62;51.41
20860;BME280;10590;48.154;11.514;2023-05-14T16:01:05;95228.66;;;15.50;55.06
20860;BME280;10590;48.154;11.514;2023-05-14T16:06:27;95230.75;;;14.01;59.19
20860;BME280;10590;48.154;11.514;2023-05-14T16:11:50;95248.47;;;13.06;66.31
20860;BME280;10590;48.154;11.514;2023-05-14T16:17:12;95269.47;;;12.92;70.94
20860;BME280;10590;48.154;11.514;2023-05-14T16:22:34;95257.09;;;12.75;73.02
20860;BME280;10590;48.154;11.514;2023-05-14T16:27:58;95265.06;;;12.23;75.85
20860;BME280;10590;48.154;11.514;2023-05-14T16:33:20;95266.81;;;12.06;76.58
20860;BME280;10590;48.154;11.514;2023-05-14T16:38:42;95273.19;;;12.26;76.62
20860;BME280;10590;48.154;11.514;2023-05-14T16:44:05;95273.75;;;12.44;76.78
20860;BME280;10590;48.154;11.514;2023-05-14T16:49:27;95280.66;;;12.33;75.54
20860;BME280;10590;48.154;11.514;2023-05-14T16:54:49;95281.75;;;12.07;76.45
20860;BME280;10590;48.154;11.514;2023-05-14T17:00:16;95292.31;;;12.04;77.20
20860;BME280;10590;48.154;11.514;2023-05-14T17:05:38;95298.78;;;11.70;78.76
20860;BME280;10590;48.154;11.514;2023-05-14T17:11:00;95287.63;;;12.01;77.96
20860;BME280;10590;48.154;11.514;2023-05-14T17:16:26;95287.31;;;11.69;79.67
20860;BME280;10590;48.154;11.514;2023-05-14T17:21:48;95285.94;;;11.96;79.05
20860;BME280;10590;48.154;11.514;2023-05-14T17:27:10;95283.06;;;11.68;80.38
20860;BME280;10590;48.154;11.514;2023-05-14T17:32:34;95287.44;;;11.73;79.33
20860;BME280;10590;48.154;11.514;2023-05-14T17:37:55;95296.16;;;11.49;80.90
20860;BME280;10590;48.154;11.514;2023-05-14T17:43:17;95283.81;;;11.57;78.78
20860;BME280;10590;48.154;11.514;2023-05-14T17:48:41;95287.50;;;11.85;77.36
20860;BME280;10590;48.154;11.514;2023-05-14T17:54:03;95296.16;;;11.82;77.42
20860;BME280;10590;48.154;11.514;2023-05-14T17:59:25;95302.91;;;12.12;76.01
20860;BME280;10590;48.154;11.514;2023-05-14T18:04:48;95289.97;;;11.36;77.41
20860;BME280;10590;48.154;11.514;2023-05-14T18:10:10;95297.22;;;11.69;75.87
20860;BME280;10590;48.154;11.514;2023-05-14T18:15:32;95288.53;;;11.18;78.58
20860;BME280;10590;48.154;11.514;2023-05-14T18:20:55;95290.59;;;11.54;77.18
20860;BME280;10590;48.154;11.514;2023-05-14T18:26:17;95295.31;;;12.02;76.04
20860;BME280;10590;48.154;11.514;2023-05-14T18:31:39;95296.66;;;12.08;75.19
20860;BME280;10590;48.154;11.514;2023-05-14T18:37:03;95309.81;;;12.13;76.61
20860;BME280;10590;48.154;11.514;2023-05-14T18:42:24;95304.94;;;12.16;76.16
20860;BME280;10590;48.154;11.514;2023-05-14T18:47:46;95305.91;;;11.99;77.49
20860;BME280;10590;48.154;11.514;2023-05-14T18:53:10;95303.19;;;12.20;75.32
20860;BME280;10590;48.154;11.514;2023-05-14T18:58:31;95301.41;;;12.24;74.71
20860;BME280;10590;48.154;11.514;2023-05-14T19:03:53;95310.75;;;12.18;75.70
20860;BME280;10590;48.154;11.514;2023-05-14T19:09:17;95312.19;;;12.15;76.26
20860;BME280;10590;48.154;11.514;2023-05-14T19:14:40;95310.13;;;11.67;78.93
20860;BME280;10590;48.154;11.514;2023-05-14T19:20:03;95314.00;;;11.57;79.44
20860;BME280;10590;48.154;11.514;2023-05-14T19:25:27;95317.19;;;11.51;79.93
20860;BME280;10590;48.154;11.514;2023-05-14T19:30:49;95316.75;;;11.48;79.92
20860;BME280;10590;48.154;11.514;2023-05-14T19:36:12;95321.78;;;11.29;80.68
20860;BME280;10590;48.154;11.514;2023-05-14T19:41:36;95309.50;;;11.07;82.30
20860;BME280;10590;48.154;11.514;2023-05-14T19:46:58;95304.81;;;10.83;83.54
20860;BME280;10590;48.154;11.514;2023-05-14T19:52:20;95313.25;;;10.85;83.57
20860;BME280;10590;48.154;11.514;2023-05-14T19:57:44;95318.00;;;10.80;84.40
20860;BME280;10590;48.154;11.514;2023-05-14T20:03:09;95318.59;;;10.85;83.74
20860;BME280;10590;48.154;11.514;2023-05-14T20:08:35;95322.91;;;10.99;82.80
20860;BME280;10590;48.154;11.514;2023-05-14T20:13:58;95323.69;;;10.99;83.88
20860;BME280;10590;48.154;11.514;2023-05-14T20:19:20;95317.84;;;11.06;83.08
20860;BME280;10590;48.154;11.514;2023-05-14T20:24:43;95309.13;;;11.38;81.45
20860;BME280;10590;48.154;11.514;2023-05-14T20:30:07;95316.47;;;11.21;83.39
20860;BME280;10590;48.154;11.514;2023-05-14T20:35:29;95314.59;;;11.21;83.26
20860;BME280;10590;48.154;11.514;2023-05-14T20:40:51;95318.75;;;11.10;83.47
20860;BME280;10590;48.154;11.514;2023-05-14T20:46:14;95317.72;;;11.02;83.91
20860;BME280;10590;48.154;11.514;2023-05-14T20:51:36;95312.22;;;10.99;84.06
20860;BME280;10590;48.154;11.514;2023-05-14T20:56:58;95303.50;;;10.90;84.79
20860;BME280;10590;48.154;11.514;2023-05-14T21:02:23;95308.06;;;10.89;84.71
20860;BME280;10590;48.154;11.514;2023-05-14T21:07:46;95305.97;;;10.95;84.59
20860;BME280;10590;48.154;11.514;2023-05-14T21:13:08;95305.31;;;10.77;85.40
20860;BME280;10590;48.154;11.514;2023-05-14T21:18:31;95300.38;;;10.88;85.41
20860;BME280;10590;48.154;11.514;2023-05-14T21:23:53;95296.38;;;10.73;85.43
20860;BME280;10590;48.154;11.514;2023-05-14T21:29:15;95290.09;;;10.77;86.16
20860;BME280;10590;48.154;11.514;2023-05-14T21:34:38;95289.19;;;10.94;84.93
20860;BME280;10590;48.154;11.514;2023-05-14T21:40:04;95296.72;;;10.92;85.41
20860;BME280;10590;48.154;11.514;2023-05-14T21:45:27;95295.56;;;11.02;84.88
20860;BME280;10590;48.154;11.514;2023-05-14T21:50:50;95302.88;;;11.13;84.25
20860;BME280;10590;48.154;11.514;2023-05-14T21:56:12;95302.09;;;11.13;84.17
20860;BME280;10590;48.154;11.514;2023-05-14T22:01:34;95285.03;;;11.05;84.53
20860;BME280;10590;48.154;11.514;2023-05-14T22:06:57;95289.84;;;11.12;83.91
20860;BME280;10590;48.154;11.514;2023-05-14T22:12:20;95287.56;;;11.02;84.55
20860;BME280;10590;48.154;11.514;2023-05-14T22:17:42;95290.53;;;10.79;85.61
20860;BME280;10590;48.154;11.514;2023-05-14T22:23:05;95295.09;;;10.79;85.51
20860;BME280;10590;48.154;11.514;2023-05-14T22:28:27;95295.97;;;10.62;85.93
20860;BME280;10590;48.154;11.514;2023-05-14T22:33:50;95289.78;;;10.49;86.88
20860;BME280;10590;48.154;11.514;2023-05-14T22:39:13;95283.72;;;10.32;87.08
20860;BME280;10590;48.154;11.514;2023-05-14T22:44:35;95281.25;;;10.27;87.40
20860;BME280;10590;48.154;11.514;2023-05-14T22:49:57;95275.94;;;10.09;87.76
20860;BME280;10590;48.154;11.514;2023-05-14T22:55:21;95274.16;;;10.31;87.18
20860;BME280;10590;48.154;11.514;2023-05-14T23:00:42;95278.75;;;10.21;87.26
20860;BME280;10590;48.154;11.514;2023-05-14T23:06:05;95264.88;;;10.37;86.66
20860;BME280;10590;48.154;11.514;2023-05-14T23:11:28;95271.03;;;10.29;86.44
20860;BME280;10590;48.154;11.514;2023-05-14T23:16:50;95281.56;;;10.16;86.88
20860;BME280;10590;48.154;11.514;2023-05-14T23:22:12;95270.84;;;10.34;86.38
20860;BME280;10590;48.154;11.514;2023-05-14T23:27:36;95268.16;;;10.42;85.96
20860;BME280;10590;48.154;11.514;2023-05-14T23:32:57;95257.66;;;10.37;85.81
20860;BME280;10590;48.154;11.514;2023-05-14T23:38:20;95246.50;;;10.44;85.56
20860;BME280;10590;48.154;11.514;2023-05-14T23:43:43;95246.44;;;10.52;85.13
20860;BME280;10590;48.154;11.514;2023-05-14T23:49:06;95242.53;;;10.50;84.73
20860;BME280;10590;48.154;11.514;2023-05-14T23:54:28;95233.38;;;10.30;85.27
20860;BME280;10590;48.154;11.514;2023-05-14T23:59:51;95234.53;;;10.20;85.56
